createdAt,value
2018-12-15T00:00:17.859Z,11.80
2018-12-15T00:03:09.645Z,12.63
2018-12-15T00:06:01.406Z,13.93
2018-12-15T00:08:51.345Z,12.80
2018-12-15T00:11:41.063Z,11.47
2018-12-15T00:14:31.117Z,12.50
2018-12-15T00:17:20.915Z,14.07
2018-12-15T00:20:10.802Z,14.40
2018-12-15T00:23:00.696Z,12.33
2018-12-15T00:25:51.527Z,17.83
2018-12-15T00:28:41.654Z,15.87
2018-12-15T00:31:31.759Z,15.37
2018-12-15T00:34:21.605Z,16.43
2018-12-15T00:37:11.509Z,14.53
2018-12-15T00:40:01.346Z,15.03
2018-12-15T00:42:51.335Z,14.10
2018-12-15T00:45:41.262Z,12.67
2018-12-15T00:48:31.217Z,16.40
2018-12-15T00:51:21.107Z,17.80
2018-12-15T00:54:12.806Z,15.97
2018-12-15T00:57:03.240Z,15.73
2018-12-15T00:59:53.119Z,17.60
2018-12-15T01:02:42.978Z,19.10
2018-12-15T01:05:32.986Z,14.33
2018-12-15T01:08:23.047Z,15.70
2018-12-15T01:11:12.904Z,14.90
2018-12-15T01:14:02.956Z,15.33
2018-12-15T01:16:52.910Z,16.83
2018-12-15T01:19:42.796Z,13.03
2018-12-15T01:22:32.946Z,16.83
2018-12-15T01:25:23.784Z,16.80
2018-12-15T01:28:15.795Z,16.40
2018-12-15T01:31:05.569Z,13.07
2018-12-15T01:33:55.546Z,12.90
2018-12-15T01:36:45.315Z,15.93
2018-12-15T01:39:35.389Z,14.80
2018-12-15T01:42:25.172Z,14.20
2018-12-15T01:45:15.130Z,16.33
2018-12-15T01:48:04.900Z,15.30
2018-12-15T01:50:54.782Z,16.10
2018-12-15T01:53:44.750Z,15.23
2018-12-15T01:56:35.048Z,18.83
2018-12-15T01:59:25.037Z,15.33
2018-12-15T02:02:15.016Z,13.17
2018-12-15T02:05:05.151Z,15.27
2018-12-15T02:07:55.771Z,17.03
2018-12-15T02:10:46.552Z,15.10
2018-12-15T02:13:36.530Z,18.37
2018-12-15T02:16:26.668Z,17.80
2018-12-15T02:19:16.501Z,21.03
2018-12-15T02:22:06.434Z,17.90
2018-12-15T02:24:56.546Z,16.00
2018-12-15T02:27:46.403Z,16.33
2018-12-15T02:30:36.545Z,18.17
2018-12-15T02:33:26.698Z,18.70
2018-12-15T02:36:16.693Z,22.87
2018-12-15T02:39:08.130Z,23.50
2018-12-15T02:42:00.246Z,23.13
2018-12-15T02:44:50.084Z,25.90
2018-12-15T02:47:41.665Z,25.67
2018-12-15T02:50:32.244Z,34.40
2018-12-15T02:53:22.303Z,28.37
2018-12-15T02:56:12.452Z,29.13
2018-12-15T02:59:02.595Z,25.27
2018-12-15T03:01:52.407Z,28.70
2018-12-15T03:04:42.930Z,38.47
2018-12-15T03:07:32.810Z,29.93
2018-12-15T03:10:23.643Z,28.37
2018-12-15T03:13:13.532Z,30.80
2018-12-15T03:16:03.584Z,32.77
2018-12-15T03:18:53.640Z,31.23
2018-12-15T03:21:43.874Z,35.77
2018-12-15T03:24:33.860Z,32.20
2018-12-15T03:27:24.389Z,31.27
2018-12-15T03:30:14.824Z,28.07
2018-12-15T03:33:05.088Z,32.63
2018-12-15T03:35:55.825Z,29.57
2018-12-15T03:38:46.511Z,26.03
2018-12-15T03:41:36.926Z,24.77
2018-12-15T03:44:27.074Z,25.43
2018-12-15T03:47:16.951Z,22.47
2018-12-15T03:50:07.733Z,25.87
2018-12-15T03:52:57.632Z,28.50
2018-12-15T03:55:47.571Z,21.17
2018-12-15T03:58:37.359Z,24.73
2018-12-15T04:01:27.476Z,21.23
2018-12-15T04:04:17.558Z,25.47
2018-12-15T04:07:07.650Z,25.23
2018-12-15T04:09:58.396Z,31.77
2018-12-15T04:12:48.977Z,21.63
2018-12-15T04:15:39.477Z,23.63
2018-12-15T04:18:30.150Z,26.67
2018-12-15T04:21:20.968Z,21.60
2018-12-15T04:24:11.693Z,18.53
2018-12-15T04:27:01.747Z,26.50
2018-12-15T04:29:53.366Z,23.20
2018-12-15T04:32:45.254Z,23.87
2018-12-15T04:35:35.287Z,22.77
2018-12-15T04:38:25.338Z,23.17
2018-12-15T04:41:15.437Z,21.83
2018-12-15T04:44:06.207Z,19.50
2018-12-15T04:46:57.846Z,23.70
2018-12-15T04:49:48.159Z,21.10
2018-12-15T04:52:39.394Z,26.43
2018-12-15T04:55:29.080Z,20.67
2018-12-15T04:58:20.239Z,23.40
2018-12-15T05:01:10.993Z,20.87
2018-12-15T05:04:01.003Z,25.10
2018-12-15T05:06:51.765Z,26.90
2018-12-15T05:09:41.989Z,31.87
2018-12-15T05:12:31.961Z,27.53
2018-12-15T05:15:21.891Z,26.57
2018-12-15T05:18:18.023Z,25.40
2018-12-15T05:21:03.706Z,27.03
2018-12-15T05:23:53.735Z,21.97
2018-12-15T05:26:43.657Z,25.17
2018-12-15T05:29:33.786Z,25.30
2018-12-15T05:32:23.626Z,26.40
2018-12-15T05:35:13.842Z,25.20
2018-12-15T05:38:04.537Z,27.33
2018-12-15T05:40:55.639Z,25.97
2018-12-15T05:43:49.115Z,31.60
2018-12-15T05:46:39.568Z,25.97
2018-12-15T05:49:31.269Z,30.40
2018-12-15T05:52:21.131Z,32.63
2018-12-15T05:55:11.311Z,28.90
2018-12-15T05:58:02.055Z,30.63
2018-12-15T06:00:52.114Z,24.07
2018-12-15T06:03:42.115Z,31.10
2018-12-15T06:06:32.981Z,28.83
2018-12-15T06:09:23.774Z,30.90
2018-12-15T06:12:13.719Z,26.23
2018-12-15T06:15:04.430Z,27.00
2018-12-15T06:17:54.740Z,28.97
2018-12-15T06:20:44.547Z,28.10
2018-12-15T06:23:34.620Z,28.97
2018-12-15T06:26:25.186Z,29.13
2018-12-15T06:29:15.758Z,26.53
2018-12-15T06:32:05.837Z,25.17
2018-12-15T06:34:55.762Z,27.77
2018-12-15T06:37:45.820Z,29.87
2018-12-15T06:40:35.703Z,22.93
2018-12-15T06:43:27.297Z,27.00
2018-12-15T06:46:17.744Z,21.77
2018-12-15T06:49:07.606Z,24.60
2018-12-15T06:51:58.130Z,23.33
2018-12-15T06:54:47.890Z,25.70
2018-12-15T06:57:38.627Z,28.27
2018-12-15T07:00:28.723Z,26.60
2018-12-15T07:03:18.791Z,29.97
2018-12-15T07:06:09.474Z,32.93
2018-12-15T07:08:59.437Z,30.77
2018-12-15T07:11:49.513Z,28.37
2018-12-15T07:14:40.791Z,26.17
2018-12-15T07:17:32.183Z,28.17
2018-12-15T07:20:22.461Z,21.63
2018-12-15T07:23:13.269Z,27.33
2018-12-15T07:26:03.314Z,26.43
2018-12-15T07:28:53.045Z,24.63
2018-12-15T07:31:43.118Z,20.13
2018-12-15T07:34:32.953Z,18.27
2018-12-15T07:37:22.717Z,23.33
2018-12-15T07:40:12.904Z,21.10
2018-12-15T07:43:03.571Z,21.00
2018-12-15T07:45:53.388Z,19.30
2018-12-15T07:48:43.261Z,20.47
2018-12-15T07:51:34.213Z,24.27
2018-12-15T07:54:24.983Z,20.40
2018-12-15T07:57:14.770Z,22.67
2018-12-15T08:00:06.342Z,22.27
2018-12-15T08:02:56.580Z,18.60
2018-12-15T08:05:47.494Z,16.50
2018-12-15T08:08:37.447Z,16.83
2018-12-15T08:11:32.351Z,10.93
2018-12-15T08:14:22.898Z,12.03
2018-12-15T08:17:12.770Z,13.97
2018-12-15T08:20:02.794Z,11.73
2018-12-15T08:22:52.719Z,8.13
2018-12-15T08:25:42.717Z,9.17
2018-12-15T08:28:32.699Z,9.37
2018-12-15T08:31:22.560Z,13.40
2018-12-15T08:34:12.701Z,12.37
2018-12-15T08:37:02.738Z,9.33
2018-12-15T08:39:52.550Z,10.33
2018-12-15T08:42:42.417Z,9.23
2018-12-15T08:45:32.374Z,11.30
2018-12-15T08:48:22.063Z,9.13
2018-12-15T08:51:12.380Z,8.03
2018-12-15T08:54:03.182Z,10.13
2018-12-15T08:56:53.950Z,11.17
2018-12-15T08:59:43.659Z,10.97
2018-12-15T09:02:33.834Z,9.20
2018-12-15T09:05:24.783Z,8.60
2018-12-15T09:08:14.877Z,10.77
2018-12-15T09:11:05.457Z,11.83
2018-12-15T09:13:55.547Z,10.40
2018-12-15T09:16:46.441Z,9.20
2018-12-15T09:19:36.511Z,11.43
2018-12-15T09:22:27.222Z,11.50
2018-12-15T09:25:17.387Z,9.90
2018-12-15T09:28:08.042Z,12.73
2018-12-15T09:30:58.155Z,13.07
2018-12-15T09:33:48.023Z,11.47
2018-12-15T09:36:39.950Z,11.53
2018-12-15T09:39:30.572Z,14.97
2018-12-15T09:42:21.354Z,17.83
2018-12-15T09:45:11.234Z,7.97
2018-12-15T09:48:01.365Z,9.37
2018-12-15T09:50:52.166Z,10.03
2018-12-15T09:53:42.051Z,11.70
2018-12-15T09:56:31.923Z,11.43
2018-12-15T09:59:22.102Z,10.80
2018-12-15T10:02:12.746Z,11.17
2018-12-15T10:05:03.765Z,10.13
2018-12-15T10:07:53.598Z,12.73
2018-12-15T10:10:43.708Z,17.03
2018-12-15T10:13:33.453Z,13.33
2018-12-15T10:16:24.422Z,11.37
2018-12-15T10:19:14.410Z,12.63
2018-12-15T10:22:05.659Z,13.13
2018-12-15T10:24:56.145Z,11.60
2018-12-15T10:27:46.343Z,11.47
2018-12-15T10:30:42.046Z,12.83
2018-12-15T10:33:32.955Z,14.40
2018-12-15T10:36:22.741Z,10.77
2018-12-15T10:39:12.791Z,11.13
2018-12-15T10:42:02.925Z,11.30
2018-12-15T10:44:53.723Z,9.93
2018-12-15T10:47:43.514Z,9.70
2018-12-15T10:50:33.853Z,13.73
2018-12-15T10:53:24.627Z,12.00
2018-12-15T10:56:14.750Z,12.73
2018-12-15T10:59:04.810Z,9.20
2018-12-15T11:01:57.063Z,12.43
2018-12-15T11:04:47.120Z,10.67
2018-12-15T11:07:37.113Z,10.90
2018-12-15T11:10:27.113Z,11.87
2018-12-15T11:13:17.097Z,10.97
2018-12-15T11:16:08.076Z,15.23
2018-12-15T11:18:58.896Z,9.17
2018-12-15T11:21:49.150Z,12.83
2018-12-15T11:24:40.061Z,9.20
2018-12-15T11:27:30.899Z,10.57
2018-12-15T11:30:21.870Z,11.90
2018-12-15T11:33:11.906Z,12.27
2018-12-15T11:36:01.695Z,11.63
2018-12-15T11:38:51.449Z,10.10
2018-12-15T11:41:41.283Z,9.00
2018-12-15T11:44:31.194Z,13.00
2018-12-15T11:47:21.994Z,12.47
2018-12-15T11:50:11.608Z,9.57
2018-12-15T11:53:01.705Z,13.00
2018-12-15T11:55:52.642Z,11.67
2018-12-15T11:58:43.264Z,11.00
2018-12-15T12:01:32.943Z,11.10
2018-12-15T12:04:23.061Z,10.40
2018-12-15T12:07:13.761Z,14.07
2018-12-15T12:10:03.839Z,8.70
2018-12-15T12:12:55.990Z,9.07
2018-12-15T12:15:47.074Z,11.57
2018-12-15T12:18:37.860Z,9.07
2018-12-15T12:21:27.993Z,11.00
2018-12-15T12:24:17.834Z,13.57
2018-12-15T12:27:09.674Z,8.73
2018-12-15T12:29:59.617Z,7.30
2018-12-15T12:32:50.336Z,10.17
2018-12-15T12:35:40.279Z,10.63
2018-12-15T12:38:30.254Z,12.43
2018-12-15T12:41:20.097Z,10.20
2018-12-15T12:44:09.982Z,12.50
2018-12-15T12:46:59.861Z,11.70
2018-12-15T12:49:49.776Z,10.13
2018-12-15T12:52:39.685Z,11.43
2018-12-15T12:55:29.849Z,12.67
2018-12-15T12:58:19.618Z,11.37
2018-12-15T13:01:09.616Z,13.53
2018-12-15T13:03:59.826Z,13.73
2018-12-15T13:06:51.414Z,13.43
2018-12-15T13:09:41.684Z,15.07
2018-12-15T13:12:31.573Z,14.53
2018-12-15T13:15:21.425Z,15.50
2018-12-15T13:18:11.561Z,14.07
2018-12-15T13:21:02.279Z,18.63
2018-12-15T13:23:52.062Z,21.60
2018-12-15T13:26:41.699Z,20.53
2018-12-15T13:29:31.552Z,15.63
2018-12-15T13:32:21.334Z,15.67
2018-12-15T13:35:11.563Z,14.07
2018-12-15T13:38:02.225Z,11.57
2018-12-15T13:40:52.307Z,14.80
2018-12-15T13:43:42.789Z,15.53
2018-12-15T13:46:32.682Z,15.60
2018-12-15T13:49:22.411Z,14.47
2018-12-15T13:52:12.410Z,12.93
2018-12-15T13:55:02.382Z,17.13
2018-12-15T13:57:52.212Z,16.73
2018-12-15T14:00:41.926Z,14.67
2018-12-15T14:03:31.755Z,13.47
2018-12-15T14:06:21.622Z,12.63
2018-12-15T14:09:11.605Z,13.27
2018-12-15T14:12:01.497Z,12.70
2018-12-15T14:14:52.389Z,14.73
2018-12-15T14:17:42.207Z,21.30
2018-12-15T14:20:33.449Z,36.23
2018-12-15T14:23:23.599Z,21.67
2018-12-15T14:26:13.494Z,25.17
2018-12-15T14:29:03.558Z,19.30
2018-12-15T14:31:53.607Z,21.40
2018-12-15T14:34:43.458Z,22.33
2018-12-15T14:37:33.251Z,15.00
2018-12-15T14:40:22.970Z,19.10
2018-12-15T14:43:13.178Z,19.30
2018-12-15T14:46:02.978Z,15.17
2018-12-15T14:48:53.798Z,14.93
2018-12-15T14:51:43.469Z,21.40
2018-12-15T14:54:33.595Z,13.70
2018-12-15T14:57:26.445Z,16.23
2018-12-15T15:00:16.667Z,11.83
2018-12-15T15:03:07.502Z,15.97
2018-12-15T15:05:58.291Z,18.13
2018-12-15T15:08:48.341Z,17.77
2018-12-15T15:11:38.256Z,18.43
2018-12-15T15:14:28.273Z,13.33
2018-12-15T15:17:18.165Z,14.37
2018-12-15T15:20:10.080Z,19.30
2018-12-15T15:23:01.319Z,22.27
2018-12-15T15:25:51.979Z,17.57
2018-12-15T15:28:42.146Z,24.00
2018-12-15T15:31:31.916Z,16.03
2018-12-15T15:34:22.121Z,20.57
2018-12-15T15:37:12.100Z,21.20
2018-12-15T15:40:02.047Z,16.97
2018-12-15T15:42:52.004Z,16.30
2018-12-15T15:45:41.891Z,15.07
2018-12-15T15:48:31.795Z,19.30
2018-12-15T15:51:21.779Z,14.63
2018-12-15T15:54:12.646Z,19.50
2018-12-15T15:57:02.633Z,18.20
2018-12-15T15:59:52.646Z,17.17
2018-12-15T16:02:42.501Z,18.00
2018-12-15T16:05:32.398Z,11.47
2018-12-15T16:08:22.537Z,15.93
2018-12-15T16:11:13.264Z,16.00
2018-12-15T16:14:03.172Z,16.43
2018-12-15T16:16:53.108Z,18.57
2018-12-15T16:19:43.026Z,23.40
2018-12-15T16:22:32.825Z,23.67
2018-12-15T16:25:22.921Z,20.43
2018-12-15T16:28:13.305Z,18.03
2018-12-15T16:31:03.174Z,16.87
2018-12-15T16:33:54.059Z,17.43
2018-12-15T16:36:44.101Z,12.57
2018-12-15T16:39:34.603Z,18.00
2018-12-15T16:42:24.678Z,19.13
2018-12-15T16:45:14.575Z,16.87
2018-12-15T16:48:04.883Z,15.63
2018-12-15T16:50:54.684Z,17.57
2018-12-15T16:53:44.407Z,19.57
2018-12-15T16:56:34.167Z,21.60
2018-12-15T16:59:24.401Z,16.43
2018-12-15T17:02:15.269Z,20.03
2018-12-15T17:05:05.394Z,18.00
2018-12-15T17:07:55.383Z,19.57
2018-12-15T17:10:45.350Z,23.03
2018-12-15T17:13:35.288Z,20.70
2018-12-15T17:16:25.292Z,25.60
2018-12-15T17:19:15.176Z,25.80
2018-12-15T17:22:05.200Z,17.40
2018-12-15T17:24:55.191Z,17.50
2018-12-15T17:27:46.189Z,18.23
2018-12-15T17:30:37.951Z,23.37
2018-12-15T17:33:28.716Z,20.33
2018-12-15T17:36:18.708Z,16.03
2018-12-15T17:39:09.314Z,17.27
2018-12-15T17:42:01.547Z,25.87
2018-12-15T17:44:51.535Z,20.33
2018-12-15T17:47:41.267Z,15.47
2018-12-15T17:50:31.231Z,17.33
2018-12-15T17:53:22.060Z,25.53
2018-12-15T17:56:12.844Z,15.57
2018-12-15T17:59:02.587Z,17.30
2018-12-15T18:01:53.877Z,22.77
2018-12-15T18:04:44.524Z,17.00
2018-12-15T18:07:35.299Z,22.93
2018-12-15T18:10:26.141Z,24.90
2018-12-15T18:13:16.030Z,19.30
2018-12-15T18:16:06.184Z,22.93
2018-12-15T18:18:57.442Z,19.10
2018-12-15T18:21:47.950Z,20.70
2018-12-15T18:24:38.903Z,21.50
2018-12-15T18:27:28.813Z,28.77
2018-12-15T18:30:18.967Z,21.63
2018-12-15T18:33:09.551Z,20.57
2018-12-15T18:35:59.518Z,19.87
2018-12-15T18:38:49.445Z,21.83
2018-12-15T18:41:39.568Z,32.33
2018-12-15T18:44:29.426Z,22.27
2018-12-15T18:47:19.633Z,25.00
2018-12-15T18:50:10.801Z,26.83
2018-12-15T18:53:01.375Z,26.37
2018-12-15T18:55:51.968Z,21.70
2018-12-15T18:58:42.161Z,31.57
2018-12-15T19:01:31.961Z,36.77
2018-12-15T19:04:21.943Z,37.63
2018-12-15T19:07:11.903Z,37.97
2018-12-15T19:10:04.257Z,29.90
2018-12-15T19:12:54.665Z,23.77
2018-12-15T19:15:45.439Z,26.83
2018-12-15T19:18:35.401Z,35.13
2018-12-15T19:21:25.622Z,29.43
2018-12-15T19:24:16.156Z,26.67
2018-12-15T19:27:06.796Z,28.23
2018-12-15T19:29:57.216Z,31.07
2018-12-15T19:32:47.977Z,25.03
2018-12-15T19:35:37.782Z,35.10
2018-12-15T19:38:27.894Z,24.57
2018-12-15T19:41:18.492Z,33.70
2018-12-15T19:44:10.392Z,25.90
2018-12-15T19:47:00.335Z,30.27
2018-12-15T19:49:50.395Z,24.27
2018-12-15T19:52:40.401Z,30.40
2018-12-15T19:55:30.335Z,30.37
2018-12-15T19:58:20.303Z,30.77
2018-12-15T20:01:10.517Z,32.07
2018-12-15T20:04:01.141Z,25.20
2018-12-15T20:06:51.937Z,30.10
2018-12-15T20:09:41.840Z,23.10
2018-12-15T20:12:31.672Z,22.87
2018-12-15T20:15:22.882Z,26.87
2018-12-15T20:18:12.737Z,26.50
2018-12-15T20:21:02.668Z,34.23
2018-12-15T20:23:53.270Z,26.83
2018-12-15T20:26:44.278Z,27.83
2018-12-15T20:29:34.649Z,28.93
2018-12-15T20:32:25.027Z,35.17
2018-12-15T20:35:14.848Z,29.60
2018-12-15T20:38:04.939Z,32.47
2018-12-15T20:40:57.048Z,25.43
2018-12-15T20:43:47.542Z,25.07
2018-12-15T20:46:39.147Z,25.57
2018-12-15T20:49:29.820Z,31.37
2018-12-15T20:52:20.488Z,24.53
2018-12-15T20:55:10.288Z,25.37
2018-12-15T20:58:00.154Z,19.57
2018-12-15T21:00:50.745Z,25.73
2018-12-15T21:03:41.018Z,22.90
2018-12-15T21:06:31.691Z,27.40
2018-12-15T21:09:22.934Z,22.60
2018-12-15T21:12:13.735Z,20.23
2018-12-15T21:15:11.133Z,22.73
2018-12-15T21:18:01.590Z,19.77
2018-12-15T21:20:51.695Z,19.93
2018-12-15T21:23:41.721Z,23.73
2018-12-15T21:26:31.962Z,19.70
2018-12-15T21:29:21.813Z,26.67
2018-12-15T21:32:11.991Z,26.07
2018-12-15T21:35:02.850Z,25.00
2018-12-15T21:37:53.560Z,22.77
2018-12-15T21:40:43.390Z,22.40
2018-12-15T21:43:34.428Z,21.30
2018-12-15T21:46:24.090Z,23.93
2018-12-15T21:49:14.137Z,18.43
2018-12-15T21:52:04.204Z,17.90
2018-12-15T21:54:54.462Z,19.30
2018-12-15T21:57:44.878Z,21.70
2018-12-15T22:00:34.833Z,19.83
2018-12-15T22:03:24.683Z,25.43
2018-12-15T22:06:14.740Z,19.93
2018-12-15T22:09:07.326Z,28.73
2018-12-15T22:11:58.575Z,21.83
2018-12-15T22:14:48.555Z,18.40
2018-12-15T22:17:38.691Z,15.97
2018-12-15T22:20:29.062Z,22.70
2018-12-15T22:23:19.648Z,24.67
2018-12-15T22:26:09.611Z,21.50
2018-12-15T22:28:59.465Z,16.97
2018-12-15T22:31:49.216Z,22.67
2018-12-15T22:34:39.242Z,19.00
2018-12-15T22:37:30.066Z,16.33
2018-12-15T22:40:20.022Z,17.77
2018-12-15T22:43:10.798Z,20.57
2018-12-15T22:46:00.971Z,24.37
2018-12-15T22:48:50.830Z,21.70
2018-12-15T22:51:41.691Z,24.47
2018-12-15T22:54:31.403Z,23.23
2018-12-15T22:57:21.439Z,18.83
2018-12-15T23:00:13.215Z,21.33
2018-12-15T23:03:05.190Z,24.53
2018-12-15T23:05:54.946Z,26.73
2018-12-15T23:08:45.550Z,28.73
2018-12-15T23:11:36.727Z,28.93
2018-12-15T23:14:26.998Z,19.33
2018-12-15T23:17:17.048Z,23.40
2018-12-15T23:20:08.068Z,23.77
2018-12-15T23:22:58.131Z,22.80
2018-12-15T23:25:48.322Z,20.90
2018-12-15T23:28:39.046Z,21.90
2018-12-15T23:31:30.234Z,23.20
2018-12-15T23:34:22.063Z,21.53
2018-12-15T23:37:14.079Z,29.53
2018-12-15T23:40:04.017Z,18.60
2018-12-15T23:42:54.426Z,24.40
2018-12-15T23:45:44.990Z,18.53
2018-12-15T23:48:34.942Z,24.67
2018-12-15T23:51:24.829Z,24.17
2018-12-15T23:54:14.949Z,25.30
2018-12-15T23:57:05.643Z,35.93
2018-12-15T23:59:55.767Z,23.93
